Time;durP1;ratioP1;P1;durP2;ratioP2;P2;SDS_P1;SDS_P2;PMS_P1;PMS_P2;Temp;Humidity;BMP_temperature;BMP_pressure;BME280_temperature;BME280_humidity;BME280_pressure;Samples;Min_cycle;Max_cycle;Signal;HPM_P1;HPM_P2
2024/02/24 00:00:05;;;;;;;1.27;0.82;;;21.10;52.50;;;;;;5082375;28;20021;-67
2024/02/24 00:02:31;;;;;;;1.02;0.80;;;21.10;52.50;;;;;;5082212;28;20032;-67
2024/02/24 00:04:57;;;;;;;1.13;0.80;;;21.10;52.50;;;;;;5083039;28;20772;-67
2024/02/24 00:07:23;;;;;;;1.30;0.90;;;21.10;52.50;;;;;;5082817;28;20029;-66
2024/02/24 00:09:48;;;;;;;1.75;0.98;;;21.10;52.50;;;;;;5081498;28;20061;-67
2024/02/24 00:12:14;;;;;;;1.40;0.80;;;21.10;52.50;;;;;;5080288;28;20039;-66
2024/02/24 00:14:40;;;;;;;0.90;0.75;;;21.10;52.50;;;;;;5081422;28;20028;-67
2024/02/24 00:17:05;;;;;;;1.35;0.90;;;21.10;52.50;;;;;;5082285;28;20028;-66
2024/02/24 00:19:31;;;;;;;1.60;1.00;;;21.10;52.50;;;;;;5083699;28;20498;-66
2024/02/24 00:21:57;;;;;;;1.25;0.90;;;21.00;52.40;;;;;;5082429;28;20028;-66
2024/02/24 00:24:22;;;;;;;1.13;0.75;;;21.00;52.40;;;;;;5080443;28;20039;-65
2024/02/24 00:26:48;;;;;;;1.35;0.90;;;21.00;52.40;;;;;;5081494;28;20027;-65
2024/02/24 00:29:14;;;;;;;0.90;0.80;;;21.00;52.40;;;;;;5079669;28;20054;-65
2024/02/24 00:31:40;;;;;;;1.23;0.80;;;21.00;52.40;;;;;;5081234;28;20071;-65
2024/02/24 00:34:06;;;;;;;1.10;0.88;;;21.00;52.40;;;;;;5082297;28;20024;-65
2024/02/24 00:36:32;;;;;;;1.00;0.70;;;21.00;52.40;;;;;;5079832;28;20094;-65
2024/02/24 00:38:58;;;;;;;1.60;0.80;;;21.00;52.40;;;;;;5079680;28;20055;-65
2024/02/24 00:41:23;;;;;;;0.90;0.70;;;21.00;52.40;;;;;;5079967;28;20071;-65
2024/02/24 00:43:49;;;;;;;0.93;0.75;;;21.00;52.40;;;;;;5081427;28;20444;-65
2024/02/24 00:46:14;;;;;;;0.98;0.80;;;21.00;52.40;;;;;;5079602;28;20035;-65
2024/02/24 00:48:41;;;;;;;1.08;0.80;;;21.00;52.40;;;;;;5079333;28;20024;-65
2024/02/24 00:51:06;;;;;;;1.38;0.90;;;20.90;52.40;;;;;;5082163;28;20357;-65
2024/02/24 00:53:32;;;;;;;1.13;0.80;;;21.00;52.40;;;;;;5078060;28;20024;-66
2024/02/24 00:55:58;;;;;;;2.80;1.48;;;20.90;52.40;;;;;;5080429;28;20059;-65
2024/02/24 00:58:23;;;;;;;0.93;0.80;;;20.90;52.40;;;;;;5081249;28;20025;-65
2024/02/24 01:00:49;;;;;;;1.00;0.90;;;20.90;52.40;;;;;;5083183;28;20037;-65
2024/02/24 01:03:14;;;;;;;0.82;0.70;;;20.90;52.40;;;;;;5079611;28;20088;-66
2024/02/24 01:05:41;;;;;;;1.13;0.80;;;20.90;52.40;;;;;;5081541;28;20029;-66
2024/02/24 01:08:08;;;;;;;0.98;0.80;;;20.90;52.40;;;;;;5063231;28;20025;-65
2024/02/24 01:10:33;;;;;;;1.10;0.82;;;20.90;52.40;;;;;;5080078;28;20047;-67
2024/02/24 01:13:00;;;;;;;1.35;0.90;;;20.90;52.40;;;;;;5080333;28;20870;-67
2024/02/24 01:15:25;;;;;;;1.08;0.80;;;20.80;52.40;;;;;;5062721;28;20123;-66
2024/02/24 01:17:55;;;;;;;1.25;0.90;;;20.90;52.40;;;;;;5081101;28;20076;-68
2024/02/24 01:20:21;;;;;;;1.10;0.80;;;20.80;52.40;;;;;;5081525;28;20032;-67
2024/02/24 01:22:52;;;;;;;1.08;0.90;;;20.80;52.90;;;;;;5080619;28;20090;-67
2024/02/24 01:25:20;;;;;;;1.05;0.88;;;20.80;52.40;;;;;;5081839;28;20016;-66
2024/02/24 01:27:46;;;;;;;1.40;0.90;;;20.80;52.40;;;;;;5079530;28;20024;-66
2024/02/24 01:30:12;;;;;;;0.98;0.70;;;20.80;52.40;;;;;;5080348;28;20071;-66
2024/02/24 01:32:37;;;;;;;1.05;0.70;;;20.80;52.40;;;;;;5079896;28;20094;-66
2024/02/24 01:35:03;;;;;;;0.93;0.82;;;20.80;52.40;;;;;;5080812;28;20047;-65
2024/02/24 01:37:29;;;;;;;0.98;0.70;;;20.80;52.40;;;;;;5081602;28;20039;-65
2024/02/24 01:39:55;;;;;;;0.80;0.70;;;20.80;52.40;;;;;;5077002;28;20032;-65
2024/02/24 01:42:20;;;;;;;1.25;0.75;;;20.70;52.30;;;;;;5081362;28;20028;-65
2024/02/24 01:44:46;;;;;;;1.15;1.00;;;20.80;52.40;;;;;;5063843;28;20096;-65
2024/02/24 01:47:12;;;;;;;1.10;0.90;;;20.80;52.40;;;;;;5063377;28;20016;-65
2024/02/24 01:49:41;;;;;;;1.10;0.80;;;20.80;52.40;;;;;;5080975;28;20056;-64
2024/02/24 01:52:07;;;;;;;1.42;0.88;;;20.70;52.40;;;;;;5078894;28;20031;-64
2024/02/24 01:54:35;;;;;;;1.30;0.80;;;20.70;52.30;;;;;;5082837;28;20036;-64
2024/02/24 01:57:02;;;;;;;1.00;0.80;;;20.70;52.30;;;;;;5079805;28;20149;-64
2024/02/24 01:59:28;;;;;;;1.10;0.90;;;20.70;52.30;;;;;;5081559;28;20030;-64
2024/02/24 02:01:54;;;;;;;0.80;0.70;;;20.70;52.30;;;;;;5079546;28;20341;-64
2024/02/24 02:04:19;;;;;;;0.88;0.80;;;20.70;52.30;;;;;;5080308;28;20029;-64
2024/02/24 02:06:46;;;;;;;1.02;0.85;;;20.70;52.30;;;;;;5063359;28;20082;-64
2024/02/24 02:09:11;;;;;;;1.23;0.90;;;20.70;52.30;;;;;;5080666;28;20095;-64
2024/02/24 02:11:37;;;;;;;0.90;0.70;;;20.70;52.30;;;;;;5079317;28;20427;-64
2024/02/24 02:14:04;;;;;;;0.93;0.70;;;20.70;52.40;;;;;;5081597;28;20656;-65
2024/02/24 02:16:31;;;;;;;1.00;0.80;;;20.70;52.30;;;;;;5080408;28;20115;-65
2024/02/24 02:18:56;;;;;;;0.90;0.70;;;20.70;52.50;;;;;;5080090;28;20047;-65
2024/02/24 02:21:23;;;;;;;1.27;0.90;;;20.70;52.40;;;;;;5079872;28;20475;-65
2024/02/24 02:23:49;;;;;;;1.17;0.68;;;20.70;52.40;;;;;;5077226;28;20433;-65
2024/02/24 02:26:17;;;;;;;1.23;0.88;;;20.70;52.30;;;;;;5079838;28;20028;-66
2024/02/24 02:28:43;;;;;;;0.90;0.70;;;20.60;52.30;;;;;;5078765;28;20016;-65
2024/02/24 02:31:09;;;;;;;0.90;0.80;;;20.60;52.30;;;;;;5080641;28;20437;-65
2024/02/24 02:33:35;;;;;;;1.23;0.80;;;20.60;52.30;;;;;;5079327;28;20028;-65
2024/02/24 02:36:01;;;;;;;1.25;0.90;;;20.60;52.30;;;;;;5079893;28;20031;-65
2024/02/24 02:38:27;;;;;;;1.02;0.80;;;20.60;52.30;;;;;;5078756;28;20124;-64
2024/02/24 02:40:52;;;;;;;1.27;0.88;;;20.60;52.30;;;;;;5078002;28;20358;-65
2024/02/24 02:43:18;;;;;;;0.82;0.68;;;20.60;52.30;;;;;;5079902;28;20059;-65
2024/02/24 02:45:44;;;;;;;0.90;0.80;;;20.60;52.30;;;;;;5081334;28;20079;-65
2024/02/24 02:48:10;;;;;;;0.73;0.60;;;20.60;52.30;;;;;;5078898;28;20452;-65
2024/02/24 02:50:36;;;;;;;1.30;0.80;;;20.60;52.30;;;;;;5080010;28;20035;-66
2024/02/24 02:53:02;;;;;;;1.15;0.70;;;20.60;52.30;;;;;;5079473;28;20095;-65
2024/02/24 02:55:28;;;;;;;0.68;0.68;;;20.60;52.30;;;;;;5076993;28;20032;-65
2024/02/24 02:57:53;;;;;;;0.93;0.80;;;20.60;52.40;;;;;;5078320;28;20031;-65
2024/02/24 03:00:19;;;;;;;0.75;0.70;;;20.50;52.30;;;;;;5078322;28;20032;-66
2024/02/24 03:02:44;;;;;;;1.23;0.75;;;20.50;52.30;;;;;;5061711;28;20111;-65
2024/02/24 03:05:10;;;;;;;1.20;0.80;;;20.50;52.30;;;;;;5081169;28;20037;-66
2024/02/24 03:07:36;;;;;;;0.93;0.80;;;20.50;52.30;;;;;;5078324;28;20023;-66
2024/02/24 03:10:02;;;;;;;0.98;0.80;;;20.50;52.30;;;;;;5077782;28;20111;-65
2024/02/24 03:12:28;;;;;;;0.82;0.73;;;20.50;52.30;;;;;;5078253;28;20021;-66
2024/02/24 03:14:54;;;;;;;1.00;0.70;;;20.50;52.30;;;;;;5078672;28;20035;-66
2024/02/24 03:17:19;;;;;;;0.80;0.68;;;20.50;52.30;;;;;;5079765;28;20028;-66
2024/02/24 03:19:45;;;;;;;0.75;0.70;;;20.50;52.30;;;;;;5078390;28;20028;-66
2024/02/24 03:22:10;;;;;;;1.35;0.90;;;20.50;52.30;;;;;;5063469;28;20032;-66
2024/02/24 03:24:41;;;;;;;0.90;0.70;;;20.50;52.30;;;;;;5076283;28;20020;-65
2024/02/24 03:27:06;;;;;;;1.30;0.80;;;20.50;52.30;;;;;;5078295;28;20384;-66
2024/02/24 03:29:32;;;;;;;1.10;0.80;;;20.50;52.30;;;;;;5075818;28;20040;-66
2024/02/24 03:31:59;;;;;;;1.13;0.80;;;20.40;52.30;;;;;;5079881;28;20031;-66
2024/02/24 03:34:25;;;;;;;1.13;0.80;;;20.40;52.30;;;;;;5078914;28;20028;-61
2024/02/24 03:36:50;;;;;;;1.65;0.90;;;20.40;52.30;;;;;;5076722;28;20024;-61
2024/02/24 03:39:18;;;;;;;1.10;0.80;;;20.40;52.30;;;;;;5069239;28;20189;-61
2024/02/24 03:41:44;;;;;;;0.88;0.80;;;20.40;52.30;;;;;;5075102;28;20032;-61
2024/02/24 03:44:10;;;;;;;0.88;0.77;;;20.40;52.30;;;;;;5077832;28;20021;-62
2024/02/24 03:46:35;;;;;;;0.82;0.70;;;20.40;52.30;;;;;;5079334;28;20040;-61
2024/02/24 03:49:01;;;;;;;0.95;0.70;;;20.40;52.30;;;;;;5079036;28;20052;-62
2024/02/24 03:51:27;;;;;;;0.93;0.70;;;20.40;52.30;;;;;;5077533;28;20036;-62
2024/02/24 03:53:52;;;;;;;1.08;0.80;;;20.40;52.30;;;;;;5078597;28;20024;-64
2024/02/24 03:56:18;;;;;;;0.68;0.60;;;20.40;52.30;;;;;;5077290;28;20134;-63
2024/02/24 03:58:45;;;;;;;0.82;0.65;;;20.40;52.30;;;;;;5080089;28;20032;-63
2024/02/24 04:01:11;;;;;;;1.00;0.80;;;20.40;52.30;;;;;;5079583;28;20063;-63
2024/02/24 04:03:36;;;;;;;1.00;0.73;;;20.30;52.30;;;;;;5079035;28;20063;-63
2024/02/24 04:06:05;;;;;;;0.85;0.70;;;20.30;52.30;;;;;;5063447;28;20616;-63
2024/02/24 04:08:30;;;;;;;0.65;0.65;;;20.30;52.80;;;;;;5075838;28;20031;-62
2024/02/24 04:10:56;;;;;;;1.08;0.80;;;20.40;52.30;;;;;;5076538;28;20050;-62
2024/02/24 04:13:22;;;;;;;1.10;0.77;;;20.30;52.30;;;;;;5077584;28;20155;-66
2024/02/24 04:15:48;;;;;;;0.85;0.77;;;20.30;52.30;;;;;;5077873;28;20500;-65
2024/02/24 04:18:15;;;;;;;1.17;0.80;;;20.30;52.30;;;;;;5077611;28;20171;-66
2024/02/24 04:20:40;;;;;;;0.88;0.70;;;20.30;52.30;;;;;;5079031;28;20093;-66
2024/02/24 04:23:06;;;;;;;0.85;0.70;;;20.30;52.30;;;;;;5076560;28;20029;-65
2024/02/24 04:25:32;;;;;;;1.00;0.80;;;20.30;52.30;;;;;;5075630;28;20024;-66
2024/02/24 04:27:58;;;;;;;0.80;0.70;;;20.30;52.30;;;;;;5078108;28;20495;-65
2024/02/24 04:30:23;;;;;;;0.75;0.70;;;20.30;52.30;;;;;;5078887;28;20028;-65
2024/02/24 04:32:49;;;;;;;0.80;0.70;;;20.30;52.40;;;;;;5078851;28;20029;-65
2024/02/24 04:35:14;;;;;;;1.13;0.90;;;20.30;52.40;;;;;;5079623;28;20960;-65
2024/02/24 04:37:40;;;;;;;0.90;0.77;;;20.20;52.40;;;;;;5075809;28;20021;-65
2024/02/24 04:40:07;;;;;;;1.95;0.80;;;20.20;52.30;;;;;;5077583;28;20107;-65
2024/02/24 04:42:33;;;;;;;0.80;0.70;;;20.30;52.40;;;;;;5075750;28;20472;-66
2024/02/24 04:44:59;;;;;;;0.90;0.70;;;20.30;52.40;;;;;;5083645;28;20020;-64
2024/02/24 04:47:25;;;;;;;0.82;0.68;;;20.30;52.40;;;;;;5080655;28;20047;-64
2024/02/24 04:49:52;;;;;;;1.10;0.80;;;20.20;52.30;;;;;;5080034;28;20047;-64
2024/02/24 04:52:17;;;;;;;0.60;0.60;;;20.20;52.30;;;;;;5081244;28;20028;-64
2024/02/24 04:54:43;;;;;;;1.25;0.90;;;20.20;52.40;;;;;;5081319;28;20038;-64
2024/02/24 04:57:08;;;;;;;0.88;0.77;;;20.20;52.30;;;;;;5078345;28;20025;-64
2024/02/24 04:59:35;;;;;;;0.70;0.70;;;20.30;52.40;;;;;;5082326;28;20043;-64
2024/02/24 05:02:00;;;;;;;1.10;0.90;;;20.20;52.40;;;;;;5078161;28;20131;-64
2024/02/24 05:04:26;;;;;;;0.90;0.77;;;20.20;52.40;;;;;;5080660;28;20106;-62
2024/02/24 05:06:52;;;;;;;1.00;0.70;;;20.20;52.40;;;;;;5082258;28;20032;-62
2024/02/24 05:09:17;;;;;;;0.80;0.80;;;20.20;52.40;;;;;;5080274;28;20032;-63
2024/02/24 05:11:43;;;;;;;1.08;0.73;;;20.20;52.40;;;;;;5077563;28;20033;-63
2024/02/24 05:14:08;;;;;;;0.70;0.70;;;20.20;52.40;;;;;;5077265;28;20035;-62
2024/02/24 05:16:41;;;;;;;0.73;0.70;;;20.20;52.40;;;;;;5081578;28;20484;-63
2024/02/24 05:19:07;;;;;;;0.80;0.70;;;20.20;52.40;;;;;;5077821;28;20334;-62
2024/02/24 05:21:32;;;;;;;0.80;0.65;;;20.20;52.40;;;;;;5080621;28;20021;-62
2024/02/24 05:23:58;;;;;;;0.80;0.60;;;20.20;52.40;;;;;;5080982;28;20021;-62
2024/02/24 05:26:28;;;;;;;0.80;0.70;;;20.20;52.40;;;;;;5059972;28;20029;-62
2024/02/24 05:28:54;;;;;;;1.20;0.70;;;20.20;52.50;;;;;;5080027;28;20016;-62
2024/02/24 05:31:20;;;;;;;0.70;0.60;;;20.20;52.40;;;;;;5080259;28;20016;-62
2024/02/24 05:33:47;;;;;;;0.80;0.70;;;20.20;52.40;;;;;;5078664;28;20498;-62
2024/02/24 05:36:16;;;;;;;0.98;0.70;;;20.20;52.50;;;;;;5081947;28;20514;-62
2024/02/24 05:38:42;;;;;;;0.93;0.70;;;20.10;52.40;;;;;;5080895;28;20085;-62
2024/02/24 05:41:07;;;;;;;0.90;0.70;;;20.10;52.40;;;;;;5078578;28;20032;-62
2024/02/24 05:43:33;;;;;;;0.63;0.57;;;20.10;52.50;;;;;;5080576;28;20020;-62
2024/02/24 05:46:03;;;;;;;0.80;0.70;;;20.10;52.50;;;;;;5080470;28;20024;-63
2024/02/24 05:48:32;;;;;;;0.80;0.70;;;20.10;52.60;;;;;;5080414;28;20028;-62
2024/02/24 05:50:58;;;;;;;0.75;0.70;;;20.10;52.60;;;;;;5080228;28;20028;-62
2024/02/24 05:53:23;;;;;;;0.80;0.75;;;20.10;52.60;;;;;;5079647;28;20039;-63
2024/02/24 05:55:49;;;;;;;1.02;0.65;;;20.10;52.70;;;;;;5079054;28;20067;-63
2024/02/24 05:58:15;;;;;;;0.80;0.70;;;20.10;52.60;;;;;;5077853;28;20028;-63
2024/02/24 06:00:41;;;;;;;0.90;0.77;;;20.10;52.60;;;;;;5079866;28;20027;-63
2024/02/24 06:03:10;;;;;;;0.95;0.80;;;20.10;52.70;;;;;;5079782;28;20500;-63
2024/02/24 06:05:36;;;;;;;1.20;0.80;;;20.10;52.70;;;;;;5061934;28;20140;-63
2024/02/24 06:08:02;;;;;;;0.90;0.70;;;20.10;53.20;;;;;;5079670;28;20120;-63
2024/02/24 06:10:27;;;;;;;0.80;0.70;;;20.10;52.70;;;;;;5079060;28;20457;-63
2024/02/24 06:12:53;;;;;;;1.67;0.70;;;20.10;52.70;;;;;;5079064;28;20025;-64
2024/02/24 06:15:18;;;;;;;0.90;0.70;;;20.10;52.70;;;;;;5078817;28;20070;-62
2024/02/24 06:17:44;;;;;;;0.80;0.60;;;20.00;52.70;;;;;;5061657;28;20507;-62
2024/02/24 06:20:10;;;;;;;0.95;0.75;;;20.10;52.70;;;;;;5078114;28;20046;-62
2024/02/24 06:22:36;;;;;;;1.02;0.77;;;20.00;52.80;;;;;;5077921;28;20559;-62
2024/02/24 06:25:01;;;;;;;1.13;0.80;;;20.00;52.80;;;;;;5079026;28;20155;-62
2024/02/24 06:27:29;;;;;;;0.85;0.75;;;20.10;52.80;;;;;;5059723;28;20139;-62
2024/02/24 06:29:55;;;;;;;0.70;0.70;;;20.00;52.80;;;;;;5078544;28;20044;-62
2024/02/24 06:32:20;;;;;;;1.30;0.90;;;20.00;52.80;;;;;;5079664;28;20518;-62
2024/02/24 06:34:46;;;;;;;1.10;0.77;;;20.10;52.80;;;;;;5079434;28;20036;-63
2024/02/24 06:37:12;;;;;;;0.80;0.60;;;20.00;52.80;;;;;;5080220;28;20476;-63
2024/02/24 06:39:37;;;;;;;0.80;0.70;;;20.00;52.80;;;;;;5079635;28;20040;-63
2024/02/24 06:42:03;;;;;;;0.60;0.60;;;20.00;52.80;;;;;;5059468;28;20032;-63
2024/02/24 06:44:29;;;;;;;1.33;0.93;;;20.00;52.80;;;;;;5078015;28;20020;-63
2024/02/24 06:46:55;;;;;;;0.90;0.70;;;20.00;52.80;;;;;;5078321;28;20036;-63
2024/02/24 06:49:20;;;;;;;0.77;0.70;;;20.00;52.80;;;;;;5078917;28;20028;-62
2024/02/24 06:51:46;;;;;;;1.50;0.80;;;20.00;52.90;;;;;;5078062;28;20032;-64
2024/02/24 06:54:12;;;;;;;0.70;0.65;;;20.00;52.90;;;;;;5080011;28;20511;-64
2024/02/24 06:56:37;;;;;;;1.35;0.70;;;20.00;52.90;;;;;;5078031;28;20064;-62
2024/02/24 06:59:06;;;;;;;1.42;0.82;;;20.00;52.90;;;;;;5079138;28;20589;-63
2024/02/24 07:01:32;;;;;;;0.90;0.70;;;20.00;52.90;;;;;;5078143;28;20063;-62
2024/02/24 07:03:58;;;;;;;1.00;0.80;;;20.00;52.90;;;;;;5078730;28;20281;-62
2024/02/24 07:06:24;;;;;;;1.00;0.70;;;20.00;52.90;;;;;;5078468;28;20821;-63
2024/02/24 07:08:50;;;;;;;1.83;0.88;;;20.00;53.00;;;;;;5079659;28;20039;-62
2024/02/24 07:11:15;;;;;;;2.03;1.10;;;20.00;53.00;;;;;;5077312;28;20047;-62
2024/02/24 07:13:41;;;;;;;2.28;0.90;;;20.00;53.10;;;;;;5077492;28;20350;-62
2024/02/24 07:16:07;;;;;;;1.55;0.82;;;20.00;53.00;;;;;;5078584;28;20024;-62
2024/02/24 07:18:33;;;;;;;0.85;0.70;;;20.00;53.00;;;;;;5078363;28;20060;-62
2024/02/24 07:21:00;;;;;;;1.67;1.10;;;20.00;53.10;;;;;;5078447;28;20637;-63
2024/02/24 07:23:26;;;;;;;2.10;1.02;;;20.00;53.10;;;;;;5079203;28;20492;-64
2024/02/24 07:25:52;;;;;;;1.77;1.00;;;20.00;53.10;;;;;;5077406;28;20025;-64
2024/02/24 07:28:18;;;;;;;2.17;1.00;;;20.00;53.10;;;;;;5076750;28;20508;-64
2024/02/24 07:30:44;;;;;;;1.00;0.80;;;20.00;53.10;;;;;;5078769;28;20023;-64
2024/02/24 07:33:09;;;;;;;2.42;0.93;;;20.00;53.10;;;;;;5079287;28;20110;-64
2024/02/24 07:35:35;;;;;;;1.58;0.95;;;20.00;53.20;;;;;;5061840;28;20111;-64
2024/02/24 07:38:01;;;;;;;1.85;1.05;;;20.00;53.20;;;;;;5077183;28;20039;-64
2024/02/24 07:40:27;;;;;;;2.88;0.95;;;20.00;53.20;;;;;;5077892;28;20028;-64
2024/02/24 07:42:54;;;;;;;1.55;0.90;;;20.00;53.10;;;;;;5077705;28;20020;-64
2024/02/24 07:45:22;;;;;;;1.48;1.00;;;20.00;53.10;;;;;;5059503;28;20028;-65
2024/02/24 07:47:48;;;;;;;2.65;1.00;;;19.90;53.10;;;;;;5074803;28;20027;-65
2024/02/24 07:50:14;;;;;;;1.73;1.10;;;19.90;53.10;;;;;;5077354;28;20033;-66
2024/02/24 07:52:39;;;;;;;2.30;1.23;;;20.00;53.10;;;;;;5077616;28;20067;-66
2024/02/24 07:55:06;;;;;;;2.00;1.00;;;19.90;53.10;;;;;;5076634;28;20035;-66
2024/02/24 07:57:32;;;;;;;2.10;1.13;;;19.90;53.10;;;;;;5073925;28;20027;-65
2024/02/24 07:59:57;;;;;;;2.22;0.90;;;19.90;53.10;;;;;;5060232;28;20397;-66
2024/02/24 08:02:23;;;;;;;2.00;1.10;;;19.90;53.10;;;;;;5079139;28;20031;-66
2024/02/24 08:04:49;;;;;;;2.58;1.10;;;19.90;53.10;;;;;;5078353;28;20039;-66
2024/02/24 08:07:14;;;;;;;1.73;1.00;;;19.90;53.10;;;;;;5080638;28;20555;-66
2024/02/24 08:09:40;;;;;;;1.80;1.00;;;19.90;53.10;;;;;;5059200;28;20108;-66
2024/02/24 08:12:06;;;;;;;1.58;0.95;;;19.90;53.10;;;;;;5058561;28;20114;-66
2024/02/24 08:14:31;;;;;;;1.70;1.05;;;19.90;53.10;;;;;;5079241;28;20499;-65
2024/02/24 08:16:57;;;;;;;1.95;1.10;;;19.90;53.10;;;;;;5077284;28;20028;-66
2024/02/24 08:19:22;;;;;;;2.78;1.30;;;19.90;53.10;;;;;;5081270;28;20044;-66
2024/02/24 08:21:49;;;;;;;1.90;1.10;;;19.90;53.20;;;;;;5081591;28;20042;-66
2024/02/24 08:24:16;;;;;;;2.03;1.13;;;19.90;53.20;;;;;;5083334;28;20028;-66
2024/02/24 08:26:44;;;;;;;2.17;1.10;;;19.90;53.20;;;;;;5080796;28;20143;-66
2024/02/24 08:29:10;;;;;;;2.35;1.15;;;19.90;53.20;;;;;;5083420;28;20364;-66
2024/02/24 08:31:39;;;;;;;3.38;1.23;;;19.90;53.20;;;;;;5083795;28;20115;-66
2024/02/24 08:34:04;;;;;;;2.72;1.10;;;19.90;53.20;;;;;;5080735;28;20016;-65
2024/02/24 08:36:30;;;;;;;1.50;1.00;;;19.90;53.30;;;;;;5082874;28;20388;-65
2024/02/24 08:38:59;;;;;;;1.98;1.10;;;19.90;53.30;;;;;;5079545;28;20038;-65
2024/02/24 08:41:26;;;;;;;1.58;1.05;;;19.90;53.30;;;;;;5068085;28;20028;-65
2024/02/24 08:43:52;;;;;;;1.95;1.05;;;19.90;53.30;;;;;;5056320;28;20082;-65
2024/02/24 08:46:19;;;;;;;2.20;1.05;;;19.90;53.30;;;;;;5076569;28;20028;-65
2024/02/24 08:48:45;;;;;;;3.53;1.10;;;19.90;53.30;;;;;;5080188;28;20036;-65
2024/02/24 08:51:10;;;;;;;1.85;1.10;;;19.90;53.30;;;;;;5097524;28;20031;-65
2024/02/24 08:53:36;;;;;;;1.17;0.80;;;19.90;53.30;;;;;;5062562;28;20396;-63
2024/02/24 08:56:02;;;;;;;1.95;1.00;;;19.90;53.30;;;;;;5080786;28;20044;-62
2024/02/24 08:58:28;;;;;;;1.45;0.80;;;19.90;53.30;;;;;;5080408;28;20382;-62
2024/02/24 09:00:56;;;;;;;1.70;1.02;;;19.90;53.30;;;;;;5078756;28;20025;-61
2024/02/24 09:03:22;;;;;;;2.40;1.10;;;19.90;53.30;;;;;;5081036;28;20016;-61
2024/02/24 09:05:47;;;;;;;1.77;0.90;;;19.90;53.40;;;;;;5080742;28;20089;-61
2024/02/24 09:08:13;;;;;;;2.17;1.17;;;19.90;53.40;;;;;;5080358;28;20464;-61
2024/02/24 09:10:39;;;;;;;1.75;1.10;;;19.90;53.40;;;;;;5081596;28;20043;-62
2024/02/24 09:13:05;;;;;;;2.45;1.00;;;19.90;53.40;;;;;;5081117;28;20460;-63
2024/02/24 09:15:30;;;;;;;1.98;1.10;;;19.90;53.40;;;;;;5080545;28;20040;-61
2024/02/24 09:17:56;;;;;;;1.30;1.02;;;19.90;53.40;;;;;;5080599;28;20549;-62
2024/02/24 09:20:22;;;;;;;1.80;1.13;;;19.90;53.40;;;;;;5080992;28;20031;-62
2024/02/24 09:22:49;;;;;;;1.80;1.08;;;19.90;53.50;;;;;;5081977;28;20061;-62
2024/02/24 09:25:15;;;;;;;1.20;1.00;;;19.90;53.40;;;;;;5081594;28;20484;-66
2024/02/24 09:27:44;;;;;;;2.28;1.13;;;19.90;53.50;;;;;;5075853;28;20487;-66
2024/02/24 09:30:10;;;;;;;1.50;1.00;;;19.90;53.50;;;;;;5080464;28;20389;-66
2024/02/24 09:32:37;;;;;;;1.65;0.90;;;19.80;53.40;;;;;;5078976;28;20032;-66
2024/02/24 09:35:03;;;;;;;2.20;1.00;;;19.90;53.50;;;;;;5079041;28;20032;-66
2024/02/24 09:37:29;;;;;;;1.13;0.82;;;19.90;53.50;;;;;;5080863;28;20032;-66
2024/02/24 09:39:55;;;;;;;1.27;0.90;;;19.90;53.50;;;;;;5078759;28;20396;-66
2024/02/24 09:42:27;;;;;;;1.13;0.80;;;19.90;53.50;;;;;;5077847;28;20028;-66
2024/02/24 09:45:02;;;;;;;2.33;1.00;;;19.90;53.50;;;;;;5081171;28;20029;-65
2024/02/24 09:47:28;;;;;;;1.77;0.90;;;19.90;53.50;;;;;;5079375;28;20468;-65
2024/02/24 09:49:56;;;;;;;1.58;0.95;;;19.90;53.60;;;;;;5079142;28;20029;-65
2024/02/24 09:52:22;;;;;;;1.63;0.90;;;19.90;53.50;;;;;;5079654;28;20533;-65
2024/02/24 09:54:48;;;;;;;1.30;0.90;;;19.90;53.60;;;;;;5078527;28;20391;-65
2024/02/24 09:57:16;;;;;;;1.27;0.90;;;19.80;53.50;;;;;;5062231;28;20028;-65
2024/02/24 09:59:44;;;;;;;1.40;0.90;;;19.90;53.60;;;;;;5080179;28;20028;-65
2024/02/24 10:02:12;;;;;;;1.55;0.95;;;19.90;53.60;;;;;;5079577;28;20028;-65
2024/02/24 10:04:37;;;;;;;2.53;1.00;;;19.90;53.50;;;;;;5079686;28;20367;-66
2024/02/24 10:07:05;;;;;;;1.33;0.80;;;19.90;53.50;;;;;;5078691;28;20016;-66
2024/02/24 10:09:31;;;;;;;1.67;0.82;;;19.80;53.50;;;;;;5078207;28;20499;-66
2024/02/24 10:11:57;;;;;;;1.55;0.90;;;19.90;53.60;;;;;;5079518;28;20455;-66
2024/02/24 10:14:24;;;;;;;0.88;0.75;;;19.80;53.50;;;;;;5078016;28;20058;-66
2024/02/24 10:16:52;;;;;;;2.28;1.00;;;19.90;53.60;;;;;;5078551;28;20136;-66
2024/02/24 10:19:18;;;;;;;1.83;0.90;;;19.90;53.60;;;;;;5080233;28;20123;-66
2024/02/24 10:21:43;;;;;;;1.60;1.00;;;19.90;53.60;;;;;;5080502;28;20442;-66
2024/02/24 10:24:09;;;;;;;2.42;0.80;;;19.90;53.60;;;;;;5079326;28;20031;-66
2024/02/24 10:26:35;;;;;;;2.22;0.95;;;19.90;53.60;;;;;;5078658;28;20027;-66
2024/02/24 10:29:07;;;;;;;1.50;0.80;;;19.90;53.60;;;;;;5075753;28;20020;-66
2024/02/24 10:31:34;;;;;;;1.60;0.90;;;19.90;53.60;;;;;;5079193;28;20024;-66
2024/02/24 10:34:01;;;;;;;1.35;0.90;;;19.90;53.60;;;;;;5078794;28;20032;-65
2024/02/24 10:36:28;;;;;;;1.10;0.80;;;19.90;53.60;;;;;;5077826;28;20472;-65
2024/02/24 10:38:54;;;;;;;1.35;0.90;;;19.90;53.60;;;;;;5061000;28;20032;-65
2024/02/24 10:41:21;;;;;;;1.85;1.13;;;19.90;53.70;;;;;;5076752;28;20037;-66
2024/02/24 10:43:48;;;;;;;1.35;0.82;;;19.90;53.70;;;;;;5077390;28;20023;-65
2024/02/24 10:46:14;;;;;;;1.30;0.90;;;19.90;53.70;;;;;;5077565;28;20025;-66
2024/02/24 10:48:40;;;;;;;1.67;0.90;;;19.90;53.70;;;;;;5081039;28;20094;-66
2024/02/24 10:51:05;;;;;;;1.83;0.90;;;19.90;53.80;;;;;;5079228;28;20028;-65
2024/02/24 10:53:32;;;;;;;2.25;1.10;;;19.90;53.70;;;;;;5078691;28;20039;-66
2024/02/24 10:56:01;;;;;;;1.33;0.80;;;19.90;53.70;;;;;;5077650;28;20511;-67
2024/02/24 10:58:27;;;;;;;1.10;0.77;;;19.90;53.80;;;;;;5075320;28;20024;-67
2024/02/24 11:00:53;;;;;;;1.23;0.90;;;19.90;53.80;;;;;;5078131;28;20726;-67
2024/02/24 11:03:23;;;;;;;1.30;0.90;;;19.90;53.90;;;;;;5077832;28;20120;-67
2024/02/24 11:05:48;;;;;;;;;;;19.90;53.90;;;;;;5077278;28;20329;-67
2024/02/24 11:08:48;;;;;;;1.00;0.63;;;19.90;53.90;;;;;;5078163;28;19904;-67
2024/02/24 11:11:14;;;;;;;1.48;0.80;;;19.90;53.90;;;;;;5077361;28;20025;-67
2024/02/24 11:13:45;;;;;;;1.48;0.80;;;19.90;54.00;;;;;;5076022;28;20468;-66
2024/02/24 11:16:11;;;;;;;1.48;0.70;;;19.90;54.00;;;;;;5058693;28;20644;-66
2024/02/24 11:18:55;;;;;;;1.05;0.80;;;19.90;53.90;;;;;;5077871;28;20174;-66
2024/02/24 11:21:41;;;;;;;1.83;0.90;;;19.90;54.00;;;;;;5094241;28;20032;-66
2024/02/24 11:24:17;;;;;;;0.90;0.70;;;19.90;54.00;;;;;;5080438;28;20051;-66
2024/02/24 11:26:44;;;;;;;1.75;0.90;;;19.90;54.00;;;;;;5062496;28;20024;-66
2024/02/24 11:29:16;;;;;;;1.58;0.90;;;19.90;54.00;;;;;;5077597;28;20067;-66
2024/02/24 11:31:44;;;;;;;1.60;0.80;;;19.90;54.00;;;;;;5079083;28;20033;-66
2024/02/24 11:34:11;;;;;;;1.42;0.80;;;19.90;54.00;;;;;;5078999;28;20020;-66
2024/02/24 11:36:38;;;;;;;1.38;0.80;;;19.90;54.10;;;;;;5076780;28;20024;-66
2024/02/24 11:39:08;;;;;;;1.27;0.80;;;19.90;54.10;;;;;;5079486;28;20071;-66
2024/02/24 11:41:34;;;;;;;;;;;19.90;54.10;;;;;;5076382;28;20021;-66
2024/02/24 11:44:01;;;;;;;1.55;0.80;;;19.90;54.10;;;;;;5076626;28;19908;-66
2024/02/24 11:46:26;;;;;;;0.93;0.60;;;19.90;54.10;;;;;;5080563;28;20027;-66
2024/02/24 11:48:53;;;;;;;1.20;0.75;;;19.90;54.10;;;;;;5078483;28;20029;-65
2024/02/24 11:51:23;;;;;;;1.25;0.77;;;19.90;54.10;;;;;;5078286;28;20515;-65
2024/02/24 11:53:49;;;;;;;1.25;0.77;;;19.90;54.10;;;;;;5081150;28;20107;-65
2024/02/24 11:56:15;;;;;;;1.88;0.95;;;19.90;54.10;;;;;;5081432;28;20391;-65
2024/02/24 11:58:41;;;;;;;1.17;0.85;;;19.90;54.10;;;;;;5080953;28;20028;-65
2024/02/24 12:01:07;;;;;;;2.22;0.77;;;19.90;54.10;;;;;;5079991;28;20385;-65
2024/02/24 12:03:33;;;;;;;1.25;0.85;;;19.90;54.10;;;;;;5081319;28;20144;-63
2024/02/24 12:06:03;;;;;;;1.15;0.73;;;19.90;54.10;;;;;;5072449;28;20526;-62
2024/02/24 12:08:30;;;;;;;1.45;0.90;;;19.90;54.10;;;;;;5070973;28;20159;-61
2024/02/24 12:10:56;;;;;;;2.00;0.80;;;19.90;54.10;;;;;;5082282;28;20036;-63
2024/02/24 12:13:21;;;;;;;1.70;1.00;;;19.90;54.00;;;;;;5080955;28;20545;-62
2024/02/24 12:15:47;;;;;;;1.20;0.73;;;19.90;54.10;;;;;;5081732;28;20036;-63
2024/02/24 12:18:13;;;;;;;1.13;0.88;;;19.90;54.10;;;;;;5083119;28;20040;-64
2024/02/24 12:20:40;;;;;;;1.60;0.80;;;19.90;54.10;;;;;;5082096;28;20566;-61
2024/02/24 12:23:07;;;;;;;1.80;0.88;;;19.90;54.10;;;;;;5082098;28;20353;-62
2024/02/24 12:25:34;;;;;;;1.20;0.80;;;19.90;54.10;;;;;;5081695;28;20086;-66
2024/02/24 12:28:03;;;;;;;1.65;0.90;;;19.90;54.00;;;;;;5079715;28;20531;-66
2024/02/24 12:30:39;;;;;;;;;;;19.90;54.00;;;;;;5077373;28;20119;-68
2024/02/24 12:33:05;;;;;;;1.60;0.80;;;19.90;53.90;;;;;;5080545;28;20366;-66
2024/02/24 12:35:32;;;;;;;2.28;0.90;;;19.90;53.80;;;;;;5080743;28;20043;-66
2024/02/24 12:37:58;;;;;;;2.00;0.90;;;19.90;53.70;;;;;;5080428;28;20064;-66
2024/02/24 12:40:36;;;;;;;1.17;0.70;;;19.90;53.60;;;;;;5082173;28;20523;-67
2024/02/24 12:43:03;;;;;;;1.08;0.70;;;19.90;53.50;;;;;;5064770;28;20024;-67